createdAt,value
2018-04-10T00:01:51.081Z,27.03
2018-04-10T00:06:45.448Z,27.53
2018-04-10T00:11:40.573Z,26.17
2018-04-10T00:16:35.692Z,25.97
2018-04-10T00:21:30.843Z,25.43
2018-04-10T00:26:25.293Z,24.83
2018-04-10T00:31:19.642Z,24.27
2018-04-10T00:36:14.015Z,26.53
2018-04-10T00:41:09.121Z,24.80
2018-04-10T00:46:03.493Z,26.47
2018-04-10T00:50:57.838Z,24.97
2018-04-10T00:55:52.997Z,25.77
2018-04-10T01:00:47.338Z,25.03
2018-04-10T01:05:41.712Z,23.17
2018-04-10T01:10:36.082Z,23.73
2018-04-10T01:15:30.477Z,23.27
2018-04-10T01:20:25.615Z,24.40
2018-04-10T01:25:19.976Z,25.83
2018-04-10T01:30:14.372Z,24.30
2018-04-10T01:35:09.514Z,24.43
2018-04-10T01:40:04.679Z,24.67
2018-04-10T01:44:59.048Z,23.80
2018-04-10T01:49:54.218Z,24.33
2018-04-10T01:54:48.593Z,25.33
2018-04-10T01:59:42.949Z,24.43
2018-04-10T02:04:37.317Z,26.40
2018-04-10T02:20:39.432Z,25.90
2018-04-10T02:25:47.145Z,25.57
2018-04-10T02:30:41.516Z,24.73
2018-04-10T02:35:36.805Z,24.63
2018-04-10T02:40:31.170Z,24.47
2018-04-10T02:45:25.528Z,25.17
2018-04-10T02:50:19.889Z,25.33
2018-04-10T02:55:14.243Z,24.00
2018-04-10T03:00:09.372Z,24.23
2018-04-10T03:05:04.493Z,25.33
2018-04-10T03:09:59.637Z,24.50
2018-04-10T03:14:54.012Z,24.23
2018-04-10T03:19:49.137Z,24.33
2018-04-10T03:24:44.268Z,24.23
2018-04-10T03:29:38.625Z,24.83
2018-04-10T03:34:32.990Z,24.63
2018-04-10T03:39:27.322Z,23.27
2018-04-10T03:44:21.691Z,24.07
2018-04-10T03:49:16.055Z,24.10
2018-04-10T03:54:11.195Z,24.53
2018-04-10T03:59:05.616Z,24.33
2018-04-10T04:03:59.999Z,23.90
2018-04-10T04:08:55.124Z,22.90
2018-04-10T04:13:49.275Z,24.43
2018-04-10T04:19:00.802Z,23.93
2018-04-10T04:23:55.936Z,23.63
2018-04-10T04:28:51.056Z,22.67
2018-04-10T04:33:46.168Z,23.37
2018-04-10T04:38:41.454Z,22.40
2018-04-10T04:43:35.573Z,21.97
2018-04-10T04:48:29.936Z,24.50
2018-04-10T04:53:25.159Z,23.27
2018-04-10T04:58:20.450Z,22.90
2018-04-10T05:03:14.916Z,22.47
2018-04-10T05:08:09.286Z,23.37
2018-04-10T05:13:03.644Z,23.23
2018-04-10T05:17:58.772Z,23.60
2018-04-10T05:22:54.049Z,22.73
2018-04-10T05:27:48.638Z,21.10
2018-04-10T05:32:43.166Z,23.73
2018-04-10T05:37:37.501Z,22.47
2018-04-10T05:42:32.973Z,21.37
2018-04-10T05:47:27.344Z,20.40
2018-04-10T05:52:21.925Z,21.10
2018-04-10T05:57:16.042Z,20.53
2018-04-10T06:02:10.608Z,20.13
2018-04-10T06:07:05.001Z,20.60
2018-04-10T06:11:59.364Z,19.83
2018-04-10T06:16:54.619Z,19.20
2018-04-10T06:21:48.997Z,18.33
2018-04-10T06:26:43.368Z,18.27
2018-04-10T06:31:38.520Z,18.17
2018-04-10T06:36:32.885Z,17.73
2018-04-10T06:41:27.349Z,16.63
2018-04-10T06:46:21.667Z,16.93
2018-04-10T06:51:16.063Z,16.43
2018-04-10T06:56:10.426Z,16.20
2018-04-10T07:01:04.688Z,15.93
2018-04-10T07:05:59.054Z,15.00
2018-04-10T07:10:53.416Z,15.27
2018-04-10T07:15:48.577Z,14.80
2018-04-10T07:20:42.965Z,12.33
2018-04-10T07:25:37.341Z,11.77
2018-04-10T07:30:32.504Z,12.00
2018-04-10T07:35:26.857Z,10.57
2018-04-10T07:40:21.226Z,10.53
2018-04-10T07:45:15.597Z,10.23
2018-04-10T07:50:10.196Z,10.30
2018-04-10T07:55:05.166Z,10.53
2018-04-10T07:59:59.575Z,10.50
2018-04-10T08:04:53.947Z,9.87
2018-04-10T08:09:48.317Z,10.03
2018-04-10T08:14:43.603Z,9.60
2018-04-10T08:19:37.954Z,8.90
2018-04-10T08:24:32.326Z,9.47
2018-04-10T08:29:26.709Z,9.30
2018-04-10T08:34:21.169Z,9.50
2018-04-10T08:39:15.529Z,9.27
2018-04-10T08:44:09.887Z,7.47
2018-04-10T08:49:04.494Z,6.83
2018-04-10T08:53:58.938Z,7.33
2018-04-10T08:58:53.505Z,8.60
2018-04-10T09:03:47.869Z,6.93
2018-04-10T09:08:43.055Z,6.10
2018-04-10T09:13:37.677Z,6.53
2018-04-10T09:18:32.058Z,6.30
2018-04-10T09:23:26.688Z,4.80
2018-04-10T09:28:21.058Z,4.47
2018-04-10T09:33:15.420Z,3.60
2018-04-10T09:38:10.818Z,3.17
2018-04-10T09:43:05.435Z,3.47
2018-04-10T09:47:59.814Z,3.70
2018-04-10T09:52:54.406Z,4.10
2018-04-10T09:57:48.789Z,3.30
2018-04-10T10:02:43.248Z,2.80
2018-04-10T10:07:37.601Z,2.70
2018-04-10T10:12:31.953Z,3.13
2018-04-10T10:17:26.666Z,3.87
2018-04-10T10:22:22.752Z,3.27
2018-04-10T10:27:17.988Z,3.17
2018-04-10T10:32:12.091Z,3.30
2018-04-10T10:37:06.450Z,2.80
2018-04-10T10:42:01.842Z,2.80
2018-04-10T10:46:56.205Z,2.80
2018-04-10T10:51:50.566Z,3.20
2018-04-10T10:56:44.923Z,3.67
2018-04-10T11:01:39.611Z,3.87
2018-04-10T11:06:33.969Z,3.80
2018-04-10T11:11:28.471Z,3.97
2018-04-10T11:16:22.607Z,3.93
2018-04-10T11:21:17.722Z,4.23
2018-04-10T11:26:12.922Z,4.20
2018-04-10T11:31:07.290Z,4.20
2018-04-10T11:36:02.260Z,4.50
2018-04-10T11:40:57.628Z,4.67
2018-04-10T11:45:51.782Z,4.97
2018-04-10T11:50:46.904Z,3.97
2018-04-10T11:55:42.091Z,4.53
2018-04-10T12:00:36.699Z,4.80
2018-04-10T12:05:31.056Z,4.77
2018-04-10T12:10:25.510Z,4.17
2018-04-10T12:15:19.868Z,4.10
2018-04-10T12:20:14.228Z,4.10
2018-04-10T12:25:08.628Z,4.00
2018-04-10T12:30:03.716Z,3.93
2018-04-10T12:34:58.060Z,3.77
2018-04-10T12:39:52.446Z,4.07
2018-04-10T12:44:46.988Z,3.77
2018-04-10T12:49:42.113Z,3.00
2018-04-10T12:54:36.478Z,3.33
2018-04-10T12:59:30.842Z,2.97
2018-04-10T13:04:25.215Z,2.97
2018-04-10T13:09:20.342Z,2.40
2018-04-10T13:14:15.458Z,2.67
2018-04-10T13:19:10.650Z,2.67
2018-04-10T13:24:05.153Z,2.63
2018-04-10T13:29:00.282Z,2.60
2018-04-10T13:33:55.579Z,2.30
2018-04-10T13:38:49.928Z,2.30
2018-04-10T13:43:45.267Z,2.00
2018-04-10T13:48:40.817Z,1.80
2018-04-10T13:53:35.235Z,1.63
2018-04-10T13:58:29.719Z,2.07
2018-04-10T14:03:24.096Z,1.80
2018-04-10T14:08:19.942Z,1.70
2018-04-10T14:13:14.587Z,1.77
2018-04-10T14:18:08.959Z,1.80
2018-04-10T14:23:03.072Z,1.80
2018-04-10T14:27:57.192Z,2.23
2018-04-10T14:32:51.583Z,2.27
2018-04-10T14:37:46.114Z,2.10
2018-04-10T14:42:40.603Z,2.20
2018-04-10T14:47:34.986Z,2.57
2018-04-10T14:52:30.063Z,2.27
2018-04-10T14:57:25.270Z,2.10
2018-04-10T15:02:19.511Z,2.47
2018-04-10T15:07:13.903Z,2.47
2018-04-10T15:12:08.627Z,1.53
2018-04-10T15:17:03.389Z,2.00
2018-04-10T15:22:01.343Z,2.10
2018-04-10T15:26:56.009Z,3.90
2018-04-10T15:31:50.885Z,2.00
2018-04-10T15:36:45.252Z,2.23
2018-04-10T15:41:40.017Z,1.93
2018-04-10T15:46:34.811Z,2.13
2018-04-10T15:51:29.193Z,2.43
2018-04-10T15:56:23.636Z,2.80
2018-04-10T16:01:18.063Z,3.00
2018-04-10T16:06:13.305Z,4.03
2018-04-10T16:11:08.030Z,4.17
2018-04-10T16:16:03.259Z,3.87
2018-04-10T16:20:57.799Z,4.00
2018-04-10T16:25:52.340Z,4.07
2018-04-10T16:30:46.930Z,4.10
2018-04-10T16:35:42.238Z,3.97
2018-04-10T16:40:36.812Z,4.50
2018-04-10T16:45:31.319Z,4.10
2018-04-10T16:50:25.664Z,4.77
2018-04-10T16:55:20.056Z,3.67
2018-04-10T17:00:15.220Z,4.40
2018-04-10T17:05:09.769Z,5.07
2018-04-10T17:10:03.680Z,5.60
2018-04-10T17:14:58.082Z,5.30
2018-04-10T17:19:52.212Z,5.83
2018-04-10T17:24:47.399Z,4.80
2018-04-10T17:29:41.582Z,4.37
2018-04-10T17:34:37.764Z,4.17
2018-04-10T17:39:32.195Z,4.03
2018-04-10T17:44:26.561Z,4.33
2018-04-10T17:49:21.779Z,7.47
2018-04-10T17:54:16.691Z,8.57
2018-04-10T17:59:11.324Z,7.77
2018-04-10T18:04:05.683Z,6.50
2018-04-10T18:09:00.316Z,6.40
2018-04-10T18:13:57.735Z,4.03
2018-04-10T18:18:53.020Z,3.60
2018-04-10T18:23:47.397Z,4.17
2018-04-10T18:28:41.798Z,3.70
2018-04-10T18:33:37.605Z,5.80
2018-04-10T18:38:32.226Z,4.23
2018-04-10T18:43:27.472Z,3.70
2018-04-10T18:48:21.911Z,4.13
2018-04-10T18:53:16.589Z,4.07
2018-04-10T18:58:11.012Z,4.40
2018-04-10T19:03:06.340Z,4.80
2018-04-10T19:08:01.440Z,4.50
2018-04-10T19:12:55.868Z,4.63
2018-04-10T19:17:50.673Z,5.43
2018-04-10T19:22:45.161Z,6.90
2018-04-10T19:27:40.764Z,9.73
2018-04-10T19:32:51.827Z,10.87
2018-04-10T19:37:46.292Z,10.80
2018-04-10T19:42:41.963Z,12.80
2018-04-10T19:47:36.435Z,11.60
2018-04-10T19:52:32.714Z,13.23
2018-04-10T19:57:28.242Z,14.07
2018-04-10T20:02:22.682Z,12.40
2018-04-10T20:07:17.251Z,12.57
2018-04-10T20:12:12.988Z,12.37
2018-04-10T20:17:07.634Z,15.20
2018-04-10T20:22:02.051Z,15.83
2018-04-10T20:26:57.215Z,16.67
2018-04-10T20:31:52.002Z,17.47
2018-04-10T20:36:47.342Z,17.63
2018-04-10T20:41:41.794Z,18.10
2018-04-10T20:46:36.932Z,18.70
2018-04-10T20:51:31.081Z,18.67
2018-04-10T20:56:27.335Z,19.10
2018-04-10T21:01:21.716Z,19.10
2018-04-10T21:06:18.852Z,18.80
2018-04-10T21:11:13.452Z,14.27
2018-04-10T21:16:08.424Z,13.70
2018-04-10T21:21:03.017Z,13.47
2018-04-10T21:25:57.402Z,11.97
2018-04-10T21:30:52.522Z,11.33
2018-04-10T21:35:48.117Z,12.10
2018-04-10T21:40:42.476Z,12.20
2018-04-10T21:45:37.197Z,12.07
2018-04-10T21:50:31.755Z,13.80
2018-04-10T21:55:27.063Z,12.73
2018-04-10T22:00:21.217Z,11.00
2018-04-10T22:05:15.740Z,9.23
2018-04-10T22:10:10.953Z,10.27
2018-04-10T22:15:05.466Z,12.83
2018-04-10T22:19:59.829Z,12.80
2018-04-10T22:24:54.964Z,11.60
2018-04-10T22:29:49.460Z,12.87
2018-04-10T22:34:45.248Z,13.47
2018-04-10T22:39:39.779Z,14.40
2018-04-10T22:44:34.166Z,13.17
2018-04-10T22:49:29.083Z,10.70
2018-04-10T22:54:28.702Z,11.57
2018-04-10T22:59:23.843Z,8.10
2018-04-10T23:04:18.619Z,5.00
2018-04-10T23:09:13.357Z,5.10
2018-04-10T23:14:09.421Z,6.00
2018-04-10T23:19:04.385Z,5.80
2018-04-10T23:23:59.431Z,5.23
2018-04-10T23:28:54.253Z,5.93
2018-04-10T23:33:49.436Z,9.93
2018-04-10T23:38:44.404Z,8.20
2018-04-10T23:43:38.523Z,7.33
2018-04-10T23:48:33.897Z,17.30
2018-04-10T23:53:28.367Z,8.07
2018-04-10T23:58:23.931Z,9.67
